Time,TemperatureF,DewpointF,PressureIn,WindDirection,WindDirectionDegrees,WindSpeedMPH,WindSpeedGustMPH,Humidity,HourlyPrecipIn,Conditions,Clouds,dailyrainin,SoftwareType,DateUTC
2013-06-27 00:05:00,83.2,79.6,30.00,North,32767,0.0,0.0,89,0.00,,,0.00,Wunderground v.1.15,2013-06-27 05:05:00,
2013-06-27 00:10:00,83.2,79.6,30.00,North,32767,0.0,0.0,89,0.00,,,0.00,Wunderground v.1.15,2013-06-27 05:10:00,
2013-06-27 00:15:00,83.2,79.6,30.00,North,32767,0.0,0.0,89,0.00,,,0.00,Wunderground v.1.15,2013-06-27 05:15:00,
2013-06-27 00:20:00,83.1,79.5,29.99,North,32767,0.0,0.0,89,0.00,,,0.00,Wunderground v.1.15,2013-06-27 05:20:00,
2013-06-27 00:25:00,83.1,79.5,29.99,North,32767,0.0,0.0,89,0.00,,,0.00,Wunderground v.1.15,2013-06-27 05:25:00,
2013-06-27 00:30:00,83.1,79.5,29.99,North,32767,0.0,0.0,89,0.00,,,0.00,Wunderground v.1.15,2013-06-27 05:30:00,
2013-06-27 00:35:00,83.1,79.5,29.99,North,32767,0.0,0.0,89,0.00,,,0.00,Wunderground v.1.15,2013-06-27 05:35:00,
2013-06-27 00:40:00,83.0,79.8,29.99,North,32767,0.0,0.0,90,0.00,,,0.00,Wunderground v.1.15,2013-06-27 05:40:00,
2013-06-27 00:50:00,82.9,79.7,29.99,North,32767,0.0,0.0,90,0.00,,,0.00,Wunderground v.1.15,2013-06-27 05:50:00,
2013-06-27 00:55:00,82.9,79.7,29.99,North,32767,0.0,0.0,90,0.00,,,0.00,Wunderground v.1.15,2013-06-27 05:55:00,
2013-06-27 01:00:00,82.9,79.7,29.99,North,32767,0.0,0.0,90,0.00,,,0.00,Wunderground v.1.15,2013-06-27 06:00:00,
2013-06-27 01:05:00,82.9,79.7,29.99,North,32767,0.0,0.0,90,0.00,,,0.00,Wunderground v.1.15,2013-06-27 06:05:00,
2013-06-27 01:10:00,82.8,79.6,29.98,North,32767,0.0,0.0,90,0.00,,,0.00,Wunderground v.1.15,2013-06-27 06:10:00,
2013-06-27 01:15:00,82.8,79.6,29.98,North,32767,0.0,0.0,90,0.00,,,0.00,Wunderground v.1.15,2013-06-27 06:15:00,
2013-06-27 01:20:00,82.8,79.6,29.98,North,32767,0.0,0.0,90,0.00,,,0.00,Wunderground v.1.15,2013-06-27 06:20:00,
2013-06-27 01:25:00,82.9,79.7,29.98,North,32767,0.0,0.0,90,0.00,,,0.00,Wunderground v.1.15,2013-06-27 06:25:00,
2013-06-27 01:30:00,82.9,79.7,29.98,North,32767,0.0,0.0,90,0.00,,,0.00,Wunderground v.1.15,2013-06-27 06:30:00,
2013-06-27 01:35:00,82.9,79.7,29.98,North,32767,0.0,0.0,90,0.00,,,0.00,Wunderground v.1.15,2013-06-27 06:35:00,
2013-06-27 01:40:00,82.9,79.7,29.98,North,32767,0.0,0.0,90,0.00,,,0.00,Wunderground v.1.15,2013-06-27 06:40:00,
2013-06-27 01:45:00,82.9,79.7,29.98,North,32767,0.0,0.0,90,0.00,,,0.00,Wunderground v.1.15,2013-06-27 06:45:00,
2013-06-27 01:50:00,82.8,79.6,29.98,North,32767,0.0,0.0,90,0.00,,,0.00,Wunderground v.1.15,2013-06-27 06:50:00,
2013-06-27 01:55:00,82.7,79.5,29.98,North,32767,0.0,0.0,90,0.00,,,0.00,Wunderground v.1.15,2013-06-27 06:55:00,
2013-06-27 02:00:00,82.5,78.9,29.98,North,32767,0.0,0.0,89,0.00,,,0.00,Wunderground v.1.15,2013-06-27 07:00:00,
2013-06-27 02:05:00,82.5,79.3,29.98,North,32767,0.0,0.0,90,0.00,,,0.00,Wunderground v.1.15,2013-06-27 07:05:00,
2013-06-27 02:10:00,82.5,79.3,29.97,North,32767,0.0,0.0,90,0.00,,,0.00,Wunderground v.1.15,2013-06-27 07:10:00,
2013-06-27 02:15:00,82.5,79.6,29.98,North,32767,0.0,0.0,91,0.00,,,0.00,Wunderground v.1.15,2013-06-27 07:15:00,
2013-06-27 02:20:00,82.5,79.6,29.98,North,32767,0.0,0.0,91,0.00,,,0.00,Wunderground v.1.15,2013-06-27 07:20:00,
2013-06-27 02:25:00,82.4,79.2,29.98,North,32767,0.0,0.0,90,0.00,,,0.00,Wunderground v.1.15,2013-06-27 07:25:00,
2013-06-27 02:30:00,82.4,79.5,29.98,North,32767,0.0,0.0,91,0.00,,,0.00,Wunderground v.1.15,2013-06-27 07:30:00,
2013-06-27 02:35:00,82.3,79.4,29.98,North,32767,0.0,0.0,91,0.00,,,0.00,Wunderground v.1.15,2013-06-27 07:35:00,
2013-06-27 02:40:00,82.3,79.4,29.98,North,32767,0.0,0.0,91,0.00,,,0.00,Wunderground v.1.15,2013-06-27 07:40:00,
2013-06-27 02:45:00,82.3,79.4,29.98,North,32767,0.0,0.0,91,0.00,,,0.00,Wunderground v.1.15,2013-06-27 07:45:00,
2013-06-27 02:50:00,82.3,79.4,29.98,North,32767,0.0,0.0,91,0.00,,,0.00,Wunderground v.1.15,2013-06-27 07:50:00,
2013-06-27 02:55:00,82.3,79.4,29.98,North,32767,0.0,0.0,91,0.00,,,0.00,Wunderground v.1.15,2013-06-27 07:55:00,
2013-06-27 03:00:00,82.2,79.3,29.97,North,32767,0.0,0.0,91,0.00,,,0.00,Wunderground v.1.15,2013-06-27 08:00:00,
2013-06-27 03:05:00,82.1,79.2,29.97,North,32767,0.0,0.0,91,0.00,,,0.00,Wunderground v.1.15,2013-06-27 08:05:00,
2013-06-27 03:10:00,82.1,79.2,29.97,North,32767,0.0,0.0,91,0.00,,,0.00,Wunderground v.1.15,2013-06-27 08:10:00,
2013-06-27 03:15:00,82.1,79.2,29.97,North,32767,0.0,0.0,91,0.00,,,0.00,Wunderground v.1.15,2013-06-27 08:15:00,
2013-06-27 03:20:00,82.1,79.2,29.97,North,32767,0.0,0.0,91,0.00,,,0.00,Wunderground v.1.15,2013-06-27 08:20:00,
2013-06-27 03:25:00,82.1,79.2,29.97,North,32767,0.0,0.0,91,0.00,,,0.00,Wunderground v.1.15,2013-06-27 08:25:00,
2013-06-27 03:30:00,82.1,79.2,29.97,North,32767,0.0,0.0,91,0.00,,,0.00,Wunderground v.1.15,2013-06-27 08:30:00,
2013-06-27 03:35:00,82.2,79.3,29.97,North,32767,0.0,0.0,91,0.00,,,0.00,Wunderground v.1.15,2013-06-27 08:35:00,
2013-06-27 03:40:00,82.2,79.3,29.97,North,32767,0.0,0.0,91,0.00,,,0.00,Wunderground v.1.15,2013-06-27 08:40:00,
2013-06-27 03:45:00,82.3,79.4,29.97,North,32767,0.0,0.0,91,0.00,,,0.00,Wunderground v.1.15,2013-06-27 08:45:00,
2013-06-27 03:50:00,82.2,79.3,29.97,North,32767,0.0,0.0,91,0.00,,,0.00,Wunderground v.1.15,2013-06-27 08:50:00,
2013-06-27 03:55:00,82.2,79.3,29.97,North,32767,0.0,0.0,91,0.00,,,0.00,Wunderground v.1.15,2013-06-27 08:55:00,
2013-06-27 04:00:00,82.2,79.3,29.98,North,32767,0.0,0.0,91,0.00,,,0.00,Wunderground v.1.15,2013-06-27 09:00:00,
2013-06-27 04:05:00,82.2,79.3,29.98,North,32767,0.0,0.0,91,0.00,,,0.00,Wunderground v.1.15,2013-06-27 09:05:00,
2013-06-27 04:10:00,82.2,79.6,29.98,North,32767,0.0,0.0,92,0.00,,,0.00,Wunderground v.1.15,2013-06-27 09:10:00,
2013-06-27 04:15:00,82.2,79.6,29.98,North,32767,0.0,0.0,92,0.00,,,0.00,Wunderground v.1.15,2013-06-27 09:15:00,
2013-06-27 04:20:00,82.1,79.5,29.97,North,32767,0.0,0.0,92,0.00,,,0.00,Wunderground v.1.15,2013-06-27 09:20:00,
2013-06-27 04:25:00,82.0,79.4,29.97,North,32767,0.0,0.0,92,0.00,,,0.00,Wunderground v.1.15,2013-06-27 09:25:00,
2013-06-27 04:30:00,82.0,79.4,29.98,North,32767,0.0,0.0,92,0.00,,,0.00,Wunderground v.1.15,2013-06-27 09:30:00,
2013-06-27 04:35:00,81.9,79.3,29.98,North,32767,0.0,0.0,92,0.00,,,0.00,Wunderground v.1.15,2013-06-27 09:35:00,
2013-06-27 04:40:00,81.9,79.3,29.98,North,32767,0.0,0.0,92,0.00,,,0.00,Wunderground v.1.15,2013-06-27 09:40:00,
2013-06-27 04:45:00,81.9,79.3,29.98,North,32767,0.0,0.0,92,0.00,,,0.00,Wunderground v.1.15,2013-06-27 09:45:00,
2013-06-27 04:50:00,81.9,79.3,29.99,North,32767,0.0,0.0,92,0.00,,,0.00,Wunderground v.1.15,2013-06-27 09:50:00,
2013-06-27 04:55:00,81.8,79.2,29.99,North,32767,0.0,0.0,92,0.00,,,0.00,Wunderground v.1.15,2013-06-27 09:55:00,
2013-06-27 05:00:00,81.7,79.1,29.98,North,32767,0.0,0.0,92,0.00,,,0.00,Wunderground v.1.15,2013-06-27 10:00:00,
2013-06-27 05:05:00,81.6,79.0,29.98,North,32767,0.0,0.0,92,0.00,,,0.00,Wunderground v.1.15,2013-06-27 10:05:00,
2013-06-27 05:10:00,81.6,79.0,29.98,North,32767,0.0,0.0,92,0.00,,,0.00,Wunderground v.1.15,2013-06-27 10:10:00,
2013-06-27 05:15:00,81.5,79.3,29.98,North,32767,0.0,0.0,93,0.00,,,0.00,Wunderground v.1.15,2013-06-27 10:15:00,
2013-06-27 05:20:00,81.6,79.4,29.98,North,32767,0.0,0.0,93,0.00,,,0.00,Wunderground v.1.15,2013-06-27 10:20:00,
2013-06-27 05:25:00,81.6,79.4,29.98,North,32767,0.0,0.0,93,0.00,,,0.00,Wunderground v.1.15,2013-06-27 10:25:00,
2013-06-27 05:30:00,81.8,79.6,29.98,North,32767,0.0,0.0,93,0.00,,,0.00,Wunderground v.1.15,2013-06-27 10:30:00,
2013-06-27 05:35:00,81.9,79.7,29.98,North,32767,0.0,0.0,93,0.00,,,0.00,Wunderground v.1.15,2013-06-27 10:35:00,
2013-06-27 05:40:00,81.8,79.6,29.98,North,32767,0.0,0.0,93,0.00,,,0.00,Wunderground v.1.15,2013-06-27 10:40:00,
2013-06-27 05:45:00,81.6,79.4,29.99,North,32767,0.0,0.0,93,0.00,,,0.00,Wunderground v.1.15,2013-06-27 10:45:00,
2013-06-27 05:50:00,81.5,79.3,29.99,North,32767,0.0,0.0,93,0.00,,,0.00,Wunderground v.1.15,2013-06-27 10:50:00,
2013-06-27 05:55:00,81.3,79.1,29.99,North,32767,0.0,0.0,93,0.00,,,0.00,Wunderground v.1.15,2013-06-27 10:55:00,
2013-06-27 06:00:00,81.1,78.9,29.99,North,32767,0.0,0.0,93,0.00,,,0.00,Wunderground v.1.15,2013-06-27 11:00:00,
2013-06-27 06:05:00,80.9,78.7,29.99,North,32767,0.0,0.0,93,0.00,,,0.00,Wunderground v.1.15,2013-06-27 11:05:00,
2013-06-27 06:10:00,80.7,78.8,29.99,North,32767,0.0,0.0,94,0.00,,,0.00,Wunderground v.1.15,2013-06-27 11:10:00,
2013-06-27 06:15:00,80.6,78.7,29.99,North,32767,0.0,0.0,94,0.00,,,0.00,Wunderground v.1.15,2013-06-27 11:15:00,
2013-06-27 06:20:00,80.4,78.5,30.00,North,32767,0.0,0.0,94,0.00,,,0.00,Wunderground v.1.15,2013-06-27 11:20:00,
2013-06-27 06:25:00,80.3,78.4,29.99,North,32767,0.0,0.0,94,0.00,,,0.00,Wunderground v.1.15,2013-06-27 11:25:00,
2013-06-27 06:30:00,80.2,78.3,30.00,North,32767,0.0,0.0,94,0.00,,,0.00,Wunderground v.1.15,2013-06-27 11:30:00,
2013-06-27 06:35:00,80.2,78.3,30.00,North,32767,0.0,0.0,94,0.00,,,0.00,Wunderground v.1.15,2013-06-27 11:35:00,
2013-06-27 06:40:00,80.2,78.3,30.00,North,32767,0.0,0.0,94,0.00,,,0.00,Wunderground v.1.15,2013-06-27 11:40:00,
2013-06-27 06:45:00,80.2,78.6,30.00,North,32767,0.0,0.0,95,0.00,,,0.00,Wunderground v.1.15,2013-06-27 11:45:00,
2013-06-27 06:50:00,80.3,78.7,30.00,North,32767,0.0,0.0,95,0.00,,,0.00,Wunderground v.1.15,2013-06-27 11:50:00,
2013-06-27 06:55:00,80.3,78.7,30.00,North,32767,0.0,0.0,95,0.00,,,0.00,Wunderground v.1.15,2013-06-27 11:55:00,
2013-06-27 07:00:00,80.5,78.9,30.00,North,32767,0.0,0.0,95,0.00,,,0.00,Wunderground v.1.15,2013-06-27 12:00:00,
2013-06-27 07:05:00,80.8,79.2,30.00,North,32767,0.0,0.0,95,0.00,,,0.00,Wunderground v.1.15,2013-06-27 12:05:00,
2013-06-27 07:10:00,81.0,79.1,29.99,North,32767,0.0,0.0,94,0.00,,,0.00,Wunderground v.1.15,2013-06-27 12:10:00,
2013-06-27 07:15:00,81.4,79.5,30.00,North,32767,0.0,0.0,94,0.00,,,0.00,Wunderground v.1.15,2013-06-27 12:15:00,
2013-06-27 07:20:00,81.8,79.9,29.99,North,32767,0.0,0.0,94,0.00,,,0.00,Wunderground v.1.15,2013-06-27 12:20:00,
2013-06-27 07:25:00,82.0,79.8,29.99,North,32767,0.0,0.0,93,0.00,,,0.00,Wunderground v.1.15,2013-06-27 12:25:00,
2013-06-27 07:30:00,82.4,80.2,29.99,North,32767,0.0,0.0,93,0.00,,,0.00,Wunderground v.1.15,2013-06-27 12:30:00,
2013-06-27 07:35:00,82.7,80.1,29.99,North,32767,0.0,0.0,92,0.00,,,0.00,Wunderground v.1.15,2013-06-27 12:35:00,
2013-06-27 07:40:00,82.9,80.3,29.99,North,32767,0.0,0.0,92,0.00,,,0.00,Wunderground v.1.15,2013-06-27 12:40:00,
2013-06-27 07:45:00,83.3,80.7,29.99,North,32767,0.0,0.0,92,0.00,,,0.00,Wunderground v.1.15,2013-06-27 12:45:00,
2013-06-27 07:50:00,83.6,81.0,29.99,North,32767,0.0,0.0,92,0.00,,,0.00,Wunderground v.1.15,2013-06-27 12:50:00,
2013-06-27 07:55:00,83.9,81.0,30.00,North,32767,0.0,0.0,91,0.00,,,0.00,Wunderground v.1.15,2013-06-27 12:55:00,
2013-06-27 08:00:00,84.2,81.3,30.00,North,32767,0.0,0.0,91,0.00,,,0.00,Wunderground v.1.15,2013-06-27 13:00:00,
2013-06-27 08:05:00,84.4,81.5,30.00,North,32767,0.0,0.0,91,0.00,,,0.00,Wunderground v.1.15,2013-06-27 13:05:00,
2013-06-27 08:10:00,84.5,81.2,30.00,North,32767,0.0,0.0,90,0.00,,,0.00,Wunderground v.1.15,2013-06-27 13:10:00,
2013-06-27 08:15:00,84.5,81.2,30.00,North,32767,0.0,0.0,90,0.00,,,0.00,Wunderground v.1.15,2013-06-27 13:15:00,
2013-06-27 08:20:00,84.6,81.3,30.00,North,32767,0.0,0.0,90,0.00,,,0.00,Wunderground v.1.15,2013-06-27 13:20:00,
2013-06-27 08:25:00,84.7,81.1,30.00,North,32767,0.0,0.0,89,0.00,,,0.00,Wunderground v.1.15,2013-06-27 13:25:00,
2013-06-27 08:30:00,84.9,81.6,30.00,North,32767,0.0,0.0,90,0.00,,,0.00,Wunderground v.1.15,2013-06-27 13:30:00,
2013-06-27 08:35:00,85.2,81.9,30.00,North,32767,0.0,0.0,90,0.00,,,0.00,Wunderground v.1.15,2013-06-27 13:35:00,
2013-06-27 08:40:00,85.3,81.7,30.01,North,32767,0.0,0.0,89,0.00,,,0.00,Wunderground v.1.15,2013-06-27 13:40:00,
2013-06-27 08:50:00,85.4,81.4,30.00,North,32767,0.0,0.0,88,0.00,,,0.00,Wunderground v.1.15,2013-06-27 13:50:00,
2013-06-27 08:55:00,85.6,82.0,30.00,North,32767,0.0,0.0,89,0.00,,,0.00,Wunderground v.1.15,2013-06-27 13:55:00,
2013-06-27 09:00:00,85.6,81.6,30.00,North,32767,0.0,0.0,88,0.00,,,0.00,Wunderground v.1.15,2013-06-27 14:00:00,
2013-06-27 09:05:00,85.8,81.8,30.00,North,32767,0.0,0.0,88,0.00,,,0.00,Wunderground v.1.15,2013-06-27 14:05:00,
2013-06-27 09:10:00,85.8,81.8,30.00,North,32767,0.0,0.0,88,0.00,,,0.00,Wunderground v.1.15,2013-06-27 14:10:00,
2013-06-27 09:15:00,85.9,81.6,30.00,North,32767,0.0,0.0,87,0.00,,,0.00,Wunderground v.1.15,2013-06-27 14:15:00,
2013-06-27 09:20:00,86.1,81.8,29.99,North,32767,0.0,0.0,87,0.00,,,0.00,Wunderground v.1.15,2013-06-27 14:20:00,
2013-06-27 09:25:00,86.2,81.5,29.99,North,32767,0.0,0.0,86,0.00,,,0.00,Wunderground v.1.15,2013-06-27 14:25:00,
2013-06-27 09:30:00,86.2,81.9,29.99,North,32767,0.0,0.0,87,0.00,,,0.00,Wunderground v.1.15,2013-06-27 14:30:00,
2013-06-27 09:35:00,86.3,82.0,29.99,North,32767,0.0,0.0,87,0.00,,,0.00,Wunderground v.1.15,2013-06-27 14:35:00,
2013-06-27 09:40:00,86.4,82.1,29.99,North,32767,0.0,0.0,87,0.00,,,0.00,Wunderground v.1.15,2013-06-27 14:40:00,
2013-06-27 09:45:00,86.4,81.7,29.99,North,32767,0.0,0.0,86,0.00,,,0.00,Wunderground v.1.15,2013-06-27 14:45:00,
2013-06-27 09:50:00,86.4,81.7,29.99,North,32767,0.0,0.0,86,0.00,,,0.00,Wunderground v.1.15,2013-06-27 14:50:00,
2013-06-27 09:55:00,86.5,81.8,29.99,North,32767,0.0,0.0,86,0.00,,,0.00,Wunderground v.1.15,2013-06-27 14:55:00,
2013-06-27 10:00:00,86.7,82.0,29.99,North,32767,0.0,0.0,86,0.00,,,0.00,Wunderground v.1.15,2013-06-27 15:00:00,
2013-06-27 10:05:00,86.9,81.8,29.99,North,32767,0.0,0.0,85,0.00,,,0.00,Wunderground v.1.15,2013-06-27 15:05:00,
2013-06-27 10:10:00,87.0,81.6,29.99,North,32767,0.0,0.0,84,0.00,,,0.00,Wunderground v.1.15,2013-06-27 15:10:00,
2013-06-27 10:15:00,87.1,81.7,29.99,North,32767,0.0,0.0,84,0.00,,,0.00,Wunderground v.1.15,2013-06-27 15:15:00,
2013-06-27 10:20:00,87.1,81.7,29.99,North,32767,0.0,0.0,84,0.00,,,0.00,Wunderground v.1.15,2013-06-27 15:20:00,
2013-06-27 10:25:00,87.3,81.9,29.99,North,32767,0.0,0.0,84,0.00,,,0.00,Wunderground v.1.15,2013-06-27 15:25:00,
2013-06-27 10:30:00,87.3,81.9,29.99,North,32767,0.0,0.0,84,0.00,,,0.00,Wunderground v.1.15,2013-06-27 15:30:00,
2013-06-27 10:35:00,87.5,82.1,29.98,North,32767,0.0,0.0,84,0.00,,,0.00,Wunderground v.1.15,2013-06-27 15:35:00,
2013-06-27 10:40:00,87.9,82.8,29.98,North,32767,0.0,0.0,85,0.00,,,0.00,Wunderground v.1.15,2013-06-27 15:40:00,
2013-06-27 10:45:00,88.1,82.3,29.98,North,32767,0.0,0.0,83,0.00,,,0.00,Wunderground v.1.15,2013-06-27 15:45:00,
2013-06-27 10:50:00,88.1,82.7,29.98,North,32767,0.0,0.0,84,0.00,,,0.00,Wunderground v.1.15,2013-06-27 15:50:00,
2013-06-27 10:55:00,88.3,83.2,29.99,North,32767,0.0,0.0,85,0.00,,,0.00,Wunderground v.1.15,2013-06-27 15:55:00,
2013-06-27 11:00:00,88.4,83.3,29.99,North,32767,0.0,0.0,85,0.00,,,0.00,Wunderground v.1.15,2013-06-27 16:00:00,
2013-06-27 11:05:00,88.4,82.9,29.99,North,32767,0.0,0.0,84,0.00,,,0.00,Wunderground v.1.15,2013-06-27 16:05:00,
2013-06-27 11:10:00,88.6,83.9,29.99,North,32767,0.0,0.0,86,0.00,,,0.00,Wunderground v.1.15,2013-06-27 16:10:00,
2013-06-27 11:15:00,88.6,83.1,29.99,North,32767,0.0,0.0,84,0.00,,,0.00,Wunderground v.1.15,2013-06-27 16:15:00,
2013-06-27 11:20:00,88.5,83.0,29.99,North,32767,0.0,0.0,84,0.00,,,0.00,Wunderground v.1.15,2013-06-27 16:20:00,
2013-06-27 11:25:00,88.7,83.6,29.99,North,32767,0.0,0.0,85,0.00,,,0.00,Wunderground v.1.15,2013-06-27 16:25:00,
2013-06-27 11:30:00,89.0,83.5,29.99,North,32767,0.0,0.0,84,0.00,,,0.00,Wunderground v.1.15,2013-06-27 16:30:00,
2013-06-27 11:35:00,89.2,83.7,29.99,North,32767,0.0,0.0,84,0.00,,,0.00,Wunderground v.1.15,2013-06-27 16:35:00,
2013-06-27 11:40:00,89.3,83.8,29.99,North,32767,0.0,0.0,84,0.00,,,0.00,Wunderground v.1.15,2013-06-27 16:40:00,
2013-06-27 11:45:00,89.3,83.8,29.99,North,32767,0.0,0.0,84,0.00,,,0.00,Wunderground v.1.15,2013-06-27 16:45:00,
2013-06-27 11:50:00,89.2,83.7,29.99,North,32767,0.0,0.0,84,0.00,,,0.00,Wunderground v.1.15,2013-06-27 16:50:00,
2013-06-27 11:55:00,88.7,82.9,29.99,North,32767,0.0,0.0,83,0.00,,,0.00,Wunderground v.1.15,2013-06-27 16:55:00,
2013-06-27 12:00:00,88.5,82.7,29.99,North,32767,0.0,0.0,83,0.00,,,0.00,Wunderground v.1.15,2013-06-27 17:00:00,
2013-06-27 12:05:00,88.4,82.6,29.98,North,32767,0.0,0.0,83,0.00,,,0.00,Wunderground v.1.15,2013-06-27 17:05:00,
2013-06-27 12:10:00,88.6,83.1,29.98,North,32767,0.0,0.0,84,0.00,,,0.00,Wunderground v.1.15,2013-06-27 17:10:00,
2013-06-27 12:15:00,89.0,83.5,29.98,North,32767,0.0,0.0,84,0.00,,,0.00,Wunderground v.1.15,2013-06-27 17:15:00,
2013-06-27 12:20:00,89.2,83.4,29.98,North,32767,0.0,0.0,83,0.00,,,0.00,Wunderground v.1.15,2013-06-27 17:20:00,
2013-06-27 12:25:00,89.7,83.8,29.99,North,32767,0.0,0.0,83,0.00,,,0.00,Wunderground v.1.15,2013-06-27 17:25:00,
2013-06-27 12:30:00,89.7,83.8,29.98,North,32767,0.0,0.0,83,0.00,,,0.00,Wunderground v.1.15,2013-06-27 17:30:00,
2013-06-27 12:35:00,89.9,84.0,29.98,North,32767,0.0,0.0,83,0.00,,,0.00,Wunderground v.1.15,2013-06-27 17:35:00,
2013-06-27 12:40:00,90.2,84.7,29.98,North,32767,0.0,0.0,84,0.00,,,0.00,Wunderground v.1.15,2013-06-27 17:40:00,
2013-06-27 12:45:00,90.3,83.7,29.98,North,32767,0.0,0.0,81,0.00,,,0.00,Wunderground v.1.15,2013-06-27 17:45:00,
2013-06-27 12:50:00,90.4,84.1,29.98,North,32767,0.0,0.0,82,0.00,,,0.00,Wunderground v.1.15,2013-06-27 17:50:00,
2013-06-27 12:55:00,90.3,83.7,29.98,North,32767,0.0,0.0,81,0.00,,,0.00,Wunderground v.1.15,2013-06-27 17:55:00,
2013-06-27 13:00:00,90.0,83.4,29.98,North,32767,0.0,0.0,81,0.00,,,0.00,Wunderground v.1.15,2013-06-27 18:00:00,
2013-06-27 13:05:00,89.9,83.7,29.98,North,32767,0.0,0.0,82,0.00,,,0.00,Wunderground v.1.15,2013-06-27 18:05:00,
2013-06-27 13:10:00,89.7,83.8,29.98,North,32767,0.0,0.0,83,0.00,,,0.00,Wunderground v.1.15,2013-06-27 18:10:00,
2013-06-27 13:20:00,89.3,83.1,29.97,North,32767,0.0,0.0,82,0.00,,,0.00,Wunderground v.1.15,2013-06-27 18:20:00,
2013-06-27 13:25:00,89.0,83.2,29.97,North,32767,0.0,0.0,83,0.00,,,0.00,Wunderground v.1.15,2013-06-27 18:25:00,
2013-06-27 13:30:00,88.9,83.4,29.97,North,32767,0.0,0.0,84,0.00,,,0.00,Wunderground v.1.15,2013-06-27 18:30:00,
2013-06-27 13:35:00,89.1,84.0,29.96,North,32767,0.0,0.0,85,0.00,,,0.00,Wunderground v.1.15,2013-06-27 18:35:00,
2013-06-27 13:45:00,89.4,83.6,29.96,North,32767,0.0,0.0,83,0.00,,,0.00,Wunderground v.1.15,2013-06-27 18:45:00,
2013-06-27 13:50:00,89.4,83.2,29.96,North,32767,0.0,0.0,82,0.00,,,0.00,Wunderground v.1.15,2013-06-27 18:50:00,
2013-06-27 13:55:00,89.4,83.9,29.96,North,32767,0.0,0.0,84,0.00,,,0.00,Wunderground v.1.15,2013-06-27 18:55:00,
2013-06-27 14:00:00,89.5,83.6,29.96,North,32767,0.0,0.0,83,0.00,,,0.00,Wunderground v.1.15,2013-06-27 19:00:00,
2013-06-27 14:05:00,89.8,83.2,29.96,North,32767,0.0,0.0,81,0.00,,,0.00,Wunderground v.1.15,2013-06-27 19:05:00,
2013-06-27 14:15:00,89.7,83.5,29.95,North,32767,0.0,0.0,82,0.00,,,0.00,Wunderground v.1.15,2013-06-27 19:15:00,
2013-06-27 14:20:00,89.5,82.9,29.95,North,32767,0.0,0.0,81,0.00,,,0.00,Wunderground v.1.15,2013-06-27 19:20:00,
2013-06-27 14:25:00,89.5,82.9,29.95,North,32767,0.0,0.0,81,0.00,,,0.00,Wunderground v.1.15,2013-06-27 19:25:00,
2013-06-27 14:30:00,89.9,83.3,29.94,North,32767,0.0,0.0,81,0.00,,,0.00,Wunderground v.1.15,2013-06-27 19:30:00,
2013-06-27 14:35:00,90.5,83.9,29.94,North,32767,0.0,0.0,81,0.00,,,0.00,Wunderground v.1.15,2013-06-27 19:35:00,
2013-06-27 14:40:00,91.0,84.0,29.94,North,32767,0.0,0.0,80,0.00,,,0.00,Wunderground v.1.15,2013-06-27 19:40:00,
2013-06-27 14:45:00,91.0,84.7,29.94,North,32767,0.0,0.0,82,0.00,,,0.00,Wunderground v.1.15,2013-06-27 19:45:00,
2013-06-27 14:50:00,91.3,84.3,29.94,North,32767,0.0,0.0,80,0.00,,,0.00,Wunderground v.1.15,2013-06-27 19:50:00,
2013-06-27 14:55:00,91.5,84.1,29.93,North,32767,0.0,0.0,79,0.00,,,0.00,Wunderground v.1.15,2013-06-27 19:55:00,
2013-06-27 15:00:00,91.4,84.7,29.94,North,32767,0.0,0.0,81,0.00,,,0.00,Wunderground v.1.15,2013-06-27 20:00:00,
2013-06-27 15:05:00,91.6,84.5,29.94,North,32767,0.0,0.0,80,0.00,,,0.00,Wunderground v.1.15,2013-06-27 20:05:00,
2013-06-27 15:10:00,91.5,84.5,29.94,North,32767,0.0,0.0,80,0.00,,,0.00,Wunderground v.1.15,2013-06-27 20:10:00,
2013-06-27 15:15:00,91.3,84.3,29.93,North,32767,0.0,0.0,80,0.00,,,0.00,Wunderground v.1.15,2013-06-27 20:15:00,
2013-06-27 15:20:00,90.9,84.6,29.93,North,32767,0.0,0.0,82,0.00,,,0.00,Wunderground v.1.15,2013-06-27 20:20:00,
2013-06-27 15:25:00,90.8,84.2,29.93,North,32767,0.0,0.0,81,0.00,,,0.00,Wunderground v.1.15,2013-06-27 20:25:00,
2013-06-27 15:30:00,90.4,84.1,29.93,North,32767,0.0,0.0,82,0.00,,,0.00,Wunderground v.1.15,2013-06-27 20:30:00,
2013-06-27 15:35:00,90.4,83.8,29.93,North,32767,0.0,0.0,81,0.00,,,0.00,Wunderground v.1.15,2013-06-27 20:35:00,
2013-06-27 15:40:00,90.5,84.2,29.92,North,32767,0.0,0.0,82,0.00,,,0.00,Wunderground v.1.15,2013-06-27 20:40:00,
2013-06-27 15:45:00,89.9,83.7,29.93,North,32767,0.0,0.0,82,0.00,,,0.00,Wunderground v.1.15,2013-06-27 20:45:00,
2013-06-27 15:55:00,89.3,83.1,29.93,North,32767,0.0,0.0,82,0.00,,,0.00,Wunderground v.1.15,2013-06-27 20:55:00,
2013-06-27 16:00:00,88.7,82.9,29.92,North,32767,0.0,0.0,83,0.00,,,0.00,Wunderground v.1.15,2013-06-27 21:00:00,
2013-06-27 16:05:00,88.5,82.7,29.92,North,32767,0.0,0.0,83,0.00,,,0.00,Wunderground v.1.15,2013-06-27 21:05:00,
2013-06-27 16:10:00,88.7,83.2,29.92,North,32767,0.0,0.0,84,0.00,,,0.00,Wunderground v.1.15,2013-06-27 21:10:00,
2013-06-27 16:15:00,88.8,83.0,29.92,North,32767,0.0,0.0,83,0.00,,,0.00,Wunderground v.1.15,2013-06-27 21:15:00,
2013-06-27 16:20:00,88.8,83.3,29.92,North,32767,0.0,0.0,84,0.00,,,0.00,Wunderground v.1.15,2013-06-27 21:20:00,
2013-06-27 16:25:00,88.9,83.4,29.92,North,32767,0.0,0.0,84,0.00,,,0.00,Wunderground v.1.15,2013-06-27 21:25:00,
2013-06-27 16:30:00,89.0,83.5,29.92,North,32767,0.0,0.0,84,0.00,,,0.00,Wunderground v.1.15,2013-06-27 21:30:00,
2013-06-27 16:35:00,89.1,83.3,29.92,North,32767,0.0,0.0,83,0.00,,,0.01,Wunderground v.1.15,2013-06-27 21:35:00,
2013-06-27 16:40:00,89.1,82.5,29.92,North,32767,0.0,0.0,81,0.00,,,0.01,Wunderground v.1.15,2013-06-27 21:40:00,
2013-06-27 16:45:00,88.8,82.2,29.92,North,32767,0.0,0.0,81,0.00,,,0.01,Wunderground v.1.15,2013-06-27 21:45:00,
2013-06-27 16:50:00,88.5,82.3,29.91,North,32767,0.0,0.0,82,0.00,,,0.01,Wunderground v.1.15,2013-06-27 21:50:00,
2013-06-27 16:55:00,88.2,82.4,29.91,North,32767,0.0,0.0,83,0.00,,,0.01,Wunderground v.1.15,2013-06-27 21:55:00,
2013-06-27 17:05:00,87.9,82.5,29.91,North,32767,0.0,0.0,84,0.00,,,0.01,Wunderground v.1.15,2013-06-27 22:05:00,
2013-06-27 17:15:00,87.7,82.3,29.91,North,32767,0.0,0.0,84,0.00,,,0.01,Wunderground v.1.15,2013-06-27 22:15:00,
2013-06-27 17:20:00,87.5,82.4,29.91,North,32767,0.0,0.0,85,0.00,,,0.01,Wunderground v.1.15,2013-06-27 22:20:00,
2013-06-27 17:30:00,87.5,82.1,29.90,North,32767,0.0,0.0,84,0.00,,,0.01,Wunderground v.1.15,2013-06-27 22:30:00,
2013-06-27 17:35:00,87.6,82.2,29.90,North,32767,0.0,0.0,84,0.00,,,0.01,Wunderground v.1.15,2013-06-27 22:35:00,
2013-06-27 17:40:00,87.6,82.2,29.90,North,32767,0.0,0.0,84,0.00,,,0.01,Wunderground v.1.15,2013-06-27 22:40:00,
2013-06-27 17:45:00,87.6,81.8,29.90,North,32767,0.0,0.0,83,0.00,,,0.01,Wunderground v.1.15,2013-06-27 22:45:00,
2013-06-27 17:50:00,87.6,82.2,29.90,North,32767,0.0,0.0,84,0.00,,,0.01,Wunderground v.1.15,2013-06-27 22:50:00,
2013-06-27 17:55:00,87.5,81.7,29.90,North,32767,0.0,0.0,83,0.00,,,0.01,Wunderground v.1.15,2013-06-27 22:55:00,
2013-06-27 18:00:00,87.4,82.0,29.90,North,32767,0.0,0.0,84,0.00,,,0.01,Wunderground v.1.15,2013-06-27 23:00:00,
2013-06-27 18:05:00,87.4,81.6,29.90,North,32767,0.0,0.0,83,0.00,,,0.01,Wunderground v.1.15,2013-06-27 23:05:00,
2013-06-27 18:10:00,87.3,81.1,29.90,North,32767,0.0,0.0,82,0.00,,,0.01,Wunderground v.1.15,2013-06-27 23:10:00,
2013-06-27 18:20:00,87.1,81.3,29.90,North,32767,0.0,0.0,83,0.00,,,0.01,Wunderground v.1.15,2013-06-27 23:20:00,
2013-06-27 18:25:00,87.1,81.3,29.90,North,32767,0.0,0.0,83,0.00,,,0.01,Wunderground v.1.15,2013-06-27 23:25:00,
2013-06-27 18:30:00,87.0,81.2,29.90,North,32767,0.0,0.0,83,0.00,,,0.01,Wunderground v.1.15,2013-06-27 23:30:00,
2013-06-27 18:35:00,87.0,81.6,29.90,North,32767,0.0,0.0,84,0.00,,,0.01,Wunderground v.1.15,2013-06-27 23:35:00,
2013-06-27 18:40:00,86.9,81.8,29.90,North,32767,0.0,0.0,85,0.00,,,0.01,Wunderground v.1.15,2013-06-27 23:40:00,
2013-06-27 18:45:00,86.9,81.8,29.90,North,32767,0.0,0.0,85,0.00,,,0.01,Wunderground v.1.15,2013-06-27 23:45:00,
2013-06-27 18:50:00,86.9,81.5,29.90,North,32767,0.0,0.0,84,0.00,,,0.01,Wunderground v.1.15,2013-06-27 23:50:00,
2013-06-27 18:55:00,87.0,81.9,29.90,North,32767,0.0,0.0,85,0.00,,,0.01,Wunderground v.1.15,2013-06-27 23:55:00,
2013-06-27 19:00:00,87.0,81.9,29.90,North,32767,0.0,0.0,85,0.00,,,0.01,Wunderground v.1.15,2013-06-28 00:00:00,
2013-06-27 19:05:00,87.0,82.3,29.90,North,32767,0.0,0.0,86,0.00,,,0.01,Wunderground v.1.15,2013-06-28 00:05:00,
2013-06-27 19:10:00,86.9,82.2,29.90,North,32767,0.0,0.0,86,0.00,,,0.01,Wunderground v.1.15,2013-06-28 00:10:00,
2013-06-27 19:15:00,86.8,82.5,29.90,North,32767,0.0,0.0,87,0.00,,,0.01,Wunderground v.1.15,2013-06-28 00:15:00,
2013-06-27 19:20:00,86.6,82.3,29.90,North,32767,0.0,0.0,87,0.00,,,0.01,Wunderground v.1.15,2013-06-28 00:20:00,
2013-06-27 19:25:00,86.5,82.2,29.90,North,32767,0.0,0.0,87,0.00,,,0.01,Wunderground v.1.15,2013-06-28 00:25:00,
2013-06-27 19:30:00,86.3,82.0,29.90,North,32767,0.0,0.0,87,0.00,,,0.01,Wunderground v.1.15,2013-06-28 00:30:00,
2013-06-27 19:35:00,86.2,81.9,29.90,North,32767,0.0,0.0,87,0.00,,,0.01,Wunderground v.1.15,2013-06-28 00:35:00,
2013-06-27 19:40:00,86.2,82.2,29.90,North,32767,0.0,0.0,88,0.00,,,0.01,Wunderground v.1.15,2013-06-28 00:40:00,
2013-06-27 19:45:00,86.1,82.1,29.90,North,32767,0.0,0.0,88,0.00,,,0.01,Wunderground v.1.15,2013-06-28 00:45:00,
2013-06-27 19:50:00,86.0,82.0,29.90,North,32767,0.0,0.0,88,0.00,,,0.01,Wunderground v.1.15,2013-06-28 00:50:00,
2013-06-27 20:00:00,85.8,81.8,29.90,North,32767,0.0,0.0,88,0.00,,,0.01,Wunderground v.1.15,2013-06-28 01:00:00,
2013-06-27 20:05:00,85.7,81.7,29.90,North,32767,0.0,0.0,88,0.00,,,0.01,Wunderground v.1.15,2013-06-28 01:05:00,
2013-06-27 20:10:00,85.7,81.7,29.91,North,32767,0.0,0.0,88,0.00,,,0.01,Wunderground v.1.15,2013-06-28 01:10:00,
2013-06-27 20:15:00,85.6,81.6,29.91,North,32767,0.0,0.0,88,0.00,,,0.01,Wunderground v.1.15,2013-06-28 01:15:00,
2013-06-27 20:20:00,85.6,81.6,29.91,North,32767,0.0,0.0,88,0.00,,,0.01,Wunderground v.1.15,2013-06-28 01:20:00,
2013-06-27 20:25:00,85.5,81.5,29.91,North,32767,0.0,0.0,88,0.00,,,0.01,Wunderground v.1.15,2013-06-28 01:25:00,
2013-06-27 20:30:00,85.5,81.5,29.91,North,32767,0.0,0.0,88,0.00,,,0.01,Wunderground v.1.15,2013-06-28 01:30:00,
2013-06-27 20:35:00,85.4,81.4,29.91,North,32767,0.0,0.0,88,0.00,,,0.01,Wunderground v.1.15,2013-06-28 01:35:00,
2013-06-27 20:45:00,85.4,81.8,29.91,North,32767,0.0,0.0,89,0.00,,,0.01,Wunderground v.1.15,2013-06-28 01:45:00,
2013-06-27 20:50:00,85.3,81.7,29.91,North,32767,0.0,0.0,89,0.00,,,0.01,Wunderground v.1.15,2013-06-28 01:50:00,
2013-06-27 20:55:00,85.3,81.7,29.91,North,32767,0.0,0.0,89,0.00,,,0.01,Wunderground v.1.15,2013-06-28 01:55:00,
2013-06-27 21:00:00,85.3,81.7,29.91,North,32767,0.0,0.0,89,0.00,,,0.01,Wunderground v.1.15,2013-06-28 02:00:00,
2013-06-27 21:05:00,85.3,82.0,29.91,North,32767,0.0,0.0,90,0.00,,,0.01,Wunderground v.1.15,2013-06-28 02:05:00,
2013-06-27 21:10:00,85.3,82.0,29.91,North,32767,0.0,0.0,90,0.00,,,0.01,Wunderground v.1.15,2013-06-28 02:10:00,
2013-06-27 21:20:00,85.3,82.0,29.92,North,32767,0.0,0.0,90,0.00,,,0.01,Wunderground v.1.15,2013-06-28 02:20:00,
2013-06-27 21:25:00,85.3,82.0,29.92,North,32767,0.0,0.0,90,0.00,,,0.01,Wunderground v.1.15,2013-06-28 02:25:00,
2013-06-27 21:30:00,85.3,82.0,29.92,North,32767,0.0,0.0,90,0.00,,,0.01,Wunderground v.1.15,2013-06-28 02:30:00,
2013-06-27 21:35:00,85.3,82.0,29.92,North,32767,0.0,0.0,90,0.00,,,0.01,Wunderground v.1.15,2013-06-28 02:35:00,
2013-06-27 21:40:00,85.2,81.9,29.93,North,32767,0.0,0.0,90,0.00,,,0.01,Wunderground v.1.15,2013-06-28 02:40:00,
2013-06-27 21:45:00,85.2,81.9,29.92,North,32767,0.0,0.0,90,0.00,,,0.01,Wunderground v.1.15,2013-06-28 02:45:00,
2013-06-27 21:50:00,85.2,81.9,29.92,North,32767,0.0,0.0,90,0.00,,,0.01,Wunderground v.1.15,2013-06-28 02:50:00,
2013-06-27 22:00:00,85.3,82.0,29.93,North,32767,0.0,0.0,90,0.00,,,0.01,Wunderground v.1.15,2013-06-28 03:00:00,
2013-06-27 22:05:00,85.2,81.9,29.92,North,32767,0.0,0.0,90,0.00,,,0.01,Wunderground v.1.15,2013-06-28 03:05:00,
2013-06-27 22:10:00,85.2,81.9,29.92,North,32767,0.0,0.0,90,0.00,,,0.01,Wunderground v.1.15,2013-06-28 03:10:00,
2013-06-27 22:15:00,85.2,81.9,29.92,North,32767,0.0,0.0,90,0.00,,,0.01,Wunderground v.1.15,2013-06-28 03:15:00,
2013-06-27 22:20:00,85.2,81.9,29.92,North,32767,0.0,0.0,90,0.00,,,0.01,Wunderground v.1.15,2013-06-28 03:20:00,
2013-06-27 22:25:00,85.2,81.9,29.92,North,32767,0.0,0.0,90,0.00,,,0.01,Wunderground v.1.15,2013-06-28 03:25:00,
2013-06-27 22:35:00,85.1,82.2,29.92,North,32767,0.0,0.0,91,0.00,,,0.01,Wunderground v.1.15,2013-06-28 03:35:00,
2013-06-27 22:45:00,85.0,82.1,29.92,North,32767,0.0,0.0,91,0.00,,,0.01,Wunderground v.1.15,2013-06-28 03:45:00,
2013-06-27 22:50:00,85.0,82.1,29.92,North,32767,0.0,0.0,91,0.00,,,0.01,Wunderground v.1.15,2013-06-28 03:50:00,
2013-06-27 22:55:00,85.0,82.1,29.92,North,32767,0.0,0.0,91,0.00,,,0.01,Wunderground v.1.15,2013-06-28 03:55:00,
2013-06-27 23:00:00,85.0,82.1,29.92,North,32767,0.0,0.0,91,0.00,,,0.01,Wunderground v.1.15,2013-06-28 04:00:00,
2013-06-27 23:05:00,85.0,82.1,29.91,North,32767,0.0,0.0,91,0.00,,,0.01,Wunderground v.1.15,2013-06-28 04:05:00,
2013-06-27 23:15:00,85.0,82.1,29.91,North,32767,0.0,0.0,91,0.00,,,0.01,Wunderground v.1.15,2013-06-28 04:15:00,
2013-06-27 23:20:00,85.0,82.1,29.91,North,32767,0.0,0.0,91,0.00,,,0.01,Wunderground v.1.15,2013-06-28 04:20:00,
2013-06-27 23:25:00,85.0,82.1,29.91,North,32767,0.0,0.0,91,0.00,,,0.01,Wunderground v.1.15,2013-06-28 04:25:00,
2013-06-27 23:30:00,85.0,82.1,29.91,North,32767,0.0,0.0,91,0.00,,,0.01,Wunderground v.1.15,2013-06-28 04:30:00,
2013-06-27 23:35:00,85.0,82.4,29.91,North,32767,0.0,0.0,92,0.00,,,0.01,Wunderground v.1.15,2013-06-28 04:35:00,
2013-06-27 23:40:00,85.0,82.4,29.91,North,32767,0.0,0.0,92,0.00,,,0.01,Wunderground v.1.15,2013-06-28 04:40:00,
2013-06-27 23:45:00,84.9,82.3,29.91,North,32767,0.0,0.0,92,0.00,,,0.01,Wunderground v.1.15,2013-06-28 04:45:00,
2013-06-27 23:50:00,84.9,82.3,29.91,North,32767,0.0,0.0,92,0.00,,,0.01,Wunderground v.1.15,2013-06-28 04:50:00,
2013-06-27 23:55:00,84.9,82.3,29.91,North,32767,0.0,0.0,92,0.00,,,0.01,Wunderground v.1.15,2013-06-28 04:55:00,